Time;durP1;ratioP1;P1;durP2;ratioP2;P2;SDS_P1;SDS_P2;PMS_P1;PMS_P2;Temp;Humidity;BMP_temperature;BMP_pressure;BME280_temperature;BME280_humidity;BME280_pressure;Samples;Min_cycle;Max_cycle;Signal;HPM_P1;HPM_P2
2022/01/04 00:01:21;;;;;;;30.13;5.00;;;7.90;99.90;;;;;;4992225;28;20042;-47
2022/01/04 00:03:47;;;;;;;25.60;5.22;;;7.90;99.90;;;;;;4992273;28;20038;-49
2022/01/04 00:06:13;;;;;;;27.42;5.38;;;7.90;99.90;;;;;;4991996;28;20042;-51
2022/01/04 00:08:39;;;;;;;32.22;6.38;;;7.90;99.90;;;;;;4992084;28;20038;-50
2022/01/04 00:11:32;;;;;;;25.77;4.90;;;7.80;99.90;;;;;;4992004;28;20118;-48
2022/01/04 00:13:53;;;;;;;28.00;6.13;;;7.80;99.90;;;;;;4991852;28;20053;-52
2022/01/04 00:16:19;;;;;;;24.50;4.70;;;7.70;99.90;;;;;;4991844;28;20042;-48
2022/01/04 00:18:46;;;;;;;21.90;5.22;;;7.70;99.90;;;;;;4991776;28;20035;-49
2022/01/04 00:21:12;;;;;;;30.95;4.90;;;7.70;99.90;;;;;;4991937;28;20045;-50
2022/01/04 00:23:38;;;;;;;24.67;4.80;;;7.70;99.90;;;;;;4992021;28;20049;-52
2022/01/04 00:26:04;;;;;;;23.48;5.82;;;7.70;99.90;;;;;;4990923;28;20043;-47
2022/01/04 00:28:30;;;;;;;29.98;6.20;;;7.70;99.90;;;;;;4991730;28;20041;-49
2022/01/04 00:30:56;;;;;;;35.28;5.65;;;7.60;99.90;;;;;;4991733;28;20073;-48
2022/01/04 00:33:22;;;;;;;23.90;5.25;;;7.60;99.90;;;;;;4991621;28;20100;-46
2022/01/04 00:35:48;;;;;;;26.05;6.35;;;7.70;99.90;;;;;;4991942;28;20409;-46
2022/01/04 00:38:14;;;;;;;23.42;5.75;;;7.60;99.90;;;;;;4990611;28;20522;-51
2022/01/04 00:40:40;;;;;;;31.90;5.53;;;7.70;99.90;;;;;;4991978;28;20085;-50
2022/01/04 00:43:06;;;;;;;26.48;6.70;;;7.60;99.90;;;;;;4991663;28;20069;-48
2022/01/04 00:45:36;;;;;;;25.05;6.22;;;7.60;99.90;;;;;;4991441;28;20046;-51
2022/01/04 00:50:30;;;;;;;30.38;5.93;;;7.70;99.90;;;;;;4991061;28;20514;-61
2022/01/04 00:52:57;;;;;;;29.35;6.07;;;7.60;99.90;;;;;;4991692;28;20102;-61
2022/01/04 00:55:23;;;;;;;26.90;7.55;;;7.70;99.90;;;;;;4991403;28;20057;-61
2022/01/04 00:57:48;;;;;;;27.80;6.15;;;7.70;99.90;;;;;;4991210;28;20039;-61
2022/01/04 01:00:16;;;;;;;24.70;6.82;;;7.60;99.90;;;;;;4991298;28;20084;-61
2022/01/04 01:02:42;;;;;;;23.02;6.90;;;7.60;99.90;;;;;;4991219;28;20050;-61
2022/01/04 01:05:09;;;;;;;28.20;6.85;;;7.60;99.90;;;;;;4991093;28;20034;-61
2022/01/04 01:07:36;;;;;;;33.53;7.13;;;7.60;99.90;;;;;;4990216;28;20117;-61
2022/01/04 01:12:36;;;;;;;19.00;6.53;;;7.70;99.90;;;;;;4991186;28;20046;-61
2022/01/04 01:15:03;;;;;;;27.73;7.22;;;7.70;99.90;;;;;;4991451;28;20048;-61
2022/01/04 01:17:30;;;;;;;27.45;6.28;;;7.70;99.90;;;;;;4990826;28;20077;-61
2022/01/04 01:19:56;;;;;;;25.17;6.72;;;7.70;99.90;;;;;;4990801;28;20034;-61
2022/01/04 01:22:22;;;;;;;33.20;7.70;;;7.70;99.90;;;;;;4991132;28;20053;-61
2022/01/04 01:24:47;;;;;;;25.15;6.43;;;7.70;99.90;;;;;;4991270;28;20046;-61
2022/01/04 01:27:13;;;;;;;27.65;7.55;;;7.80;99.90;;;;;;4990878;28;20670;-61
2022/01/04 01:29:39;;;;;;;32.95;7.28;;;7.80;99.90;;;;;;4990864;28;20043;-61
2022/01/04 01:32:05;;;;;;;33.10;6.50;;;7.80;99.90;;;;;;4990475;28;20051;-61
2022/01/04 01:34:31;;;;;;;30.50;7.93;;;7.80;99.90;;;;;;4990673;28;20118;-61
2022/01/04 01:36:56;;;;;;;34.78;7.47;;;7.80;99.90;;;;;;4990716;28;20488;-61
2022/01/04 01:39:22;;;;;;;25.35;7.13;;;7.90;99.90;;;;;;4990801;28;20057;-61
2022/01/04 01:41:48;;;;;;;33.47;8.23;;;7.90;99.90;;;;;;4990583;28;20041;-61
2022/01/04 01:44:13;;;;;;;22.40;7.72;;;7.90;99.90;;;;;;4989400;28;20403;-61
2022/01/04 01:46:39;;;;;;;32.50;6.68;;;7.90;99.90;;;;;;4990377;28;20046;-61
2022/01/04 01:49:05;;;;;;;34.17;6.80;;;7.90;99.90;;;;;;4990707;28;20446;-61
2022/01/04 01:51:31;;;;;;;32.45;6.65;;;8.00;99.90;;;;;;4990549;28;20034;-61
2022/01/04 01:53:58;;;;;;;23.67;6.43;;;8.00;99.90;;;;;;4990543;28;20117;-61
2022/01/04 01:56:24;;;;;;;34.03;6.90;;;8.00;99.90;;;;;;4990339;28;20460;-61
2022/01/04 01:58:50;;;;;;;35.15;7.55;;;7.90;99.90;;;;;;4990348;28;20077;-61
2022/01/04 02:01:16;;;;;;;30.35;6.97;;;7.90;99.90;;;;;;4989960;28;20042;-61
2022/01/04 02:03:42;;;;;;;30.60;7.15;;;8.00;99.90;;;;;;4990566;28;20442;-61
2022/01/04 02:06:08;;;;;;;23.92;6.63;;;7.90;99.90;;;;;;4990313;28;20114;-61
2022/01/04 02:08:34;;;;;;;40.53;7.05;;;7.90;99.90;;;;;;4990289;28;20458;-61
2022/01/04 02:11:02;;;;;;;41.92;7.88;;;7.90;99.90;;;;;;4990620;28;20135;-61
2022/01/04 02:13:28;;;;;;;32.15;6.45;;;7.90;99.90;;;;;;4990339;28;20046;-61
2022/01/04 02:15:54;;;;;;;28.63;6.15;;;7.90;99.90;;;;;;4990266;28;20050;-61
2022/01/04 02:18:20;;;;;;;28.63;6.68;;;7.90;99.90;;;;;;4990693;28;20043;-61
2022/01/04 02:20:46;;;;;;;31.67;6.38;;;7.80;99.90;;;;;;4990176;28;20103;-60
2022/01/04 02:23:11;;;;;;;21.80;5.93;;;7.80;99.90;;;;;;4990073;28;20103;-61
2022/01/04 02:25:37;;;;;;;28.25;6.55;;;7.90;99.90;;;;;;4990022;28;20048;-61
2022/01/04 02:28:03;;;;;;;27.35;5.95;;;7.90;99.90;;;;;;4989933;28;20050;-61
2022/01/04 02:30:28;;;;;;;25.80;6.65;;;7.90;99.90;;;;;;4989931;28;20034;-61
2022/01/04 02:32:54;;;;;;;28.63;7.47;;;7.80;99.90;;;;;;4989676;28;20518;-60
2022/01/04 02:35:24;;;;;;;35.72;7.35;;;7.90;99.90;;;;;;4988690;28;20042;-61
2022/01/04 02:37:54;;;;;;;30.45;6.65;;;7.80;99.90;;;;;;4989929;28;20050;-61
2022/01/04 02:40:19;;;;;;;31.10;6.55;;;7.90;99.90;;;;;;4989863;28;20042;-61
2022/01/04 02:42:45;;;;;;;27.23;6.45;;;7.90;99.90;;;;;;4989762;28;20472;-61
2022/01/04 02:45:11;;;;;;;30.10;7.68;;;7.90;99.90;;;;;;4989528;28;20030;-61
2022/01/04 02:47:38;;;;;;;31.30;6.70;;;7.90;99.90;;;;;;4989946;28;20121;-61
2022/01/04 02:50:05;;;;;;;41.33;8.82;;;7.90;99.90;;;;;;4989712;28;20057;-61
2022/01/04 02:52:33;;;;;;;27.50;7.85;;;7.90;99.90;;;;;;4989736;28;20049;-61
2022/01/04 02:55:00;;;;;;;35.58;6.53;;;7.90;99.90;;;;;;4989508;28;20602;-61
2022/01/04 02:57:26;;;;;;;31.83;8.65;;;8.00;99.90;;;;;;4989425;28;20396;-61
2022/01/04 02:59:51;;;;;;;32.70;7.38;;;8.00;99.90;;;;;;4989454;28;20039;-61
2022/01/04 03:02:17;;;;;;;28.77;6.80;;;8.00;99.90;;;;;;4989549;28;20534;-61
2022/01/04 03:04:43;;;;;;;28.70;6.72;;;8.00;99.90;;;;;;4989554;28;20514;-61
2022/01/04 03:07:08;;;;;;;28.77;6.82;;;8.00;99.90;;;;;;4989370;28;20050;-61
2022/01/04 03:09:34;;;;;;;26.67;8.15;;;8.10;99.90;;;;;;4989501;28;20069;-61
2022/01/04 03:11:59;;;;;;;23.88;6.70;;;8.00;99.90;;;;;;4990184;28;20408;-61
2022/01/04 03:14:25;;;;;;;34.95;7.20;;;8.00;99.90;;;;;;4992808;28;20403;-61
2022/01/04 03:16:51;;;;;;;30.20;7.30;;;8.00;99.90;;;;;;4992743;28;20042;-61
2022/01/04 03:19:16;;;;;;;26.90;6.55;;;8.10;99.90;;;;;;4992894;28;20496;-61
2022/01/04 03:21:43;;;;;;;30.60;7.65;;;8.10;99.90;;;;;;4993097;28;20715;-61
2022/01/04 03:24:11;;;;;;;28.52;6.93;;;8.00;99.90;;;;;;4993043;28;20127;-61
2022/01/04 03:26:37;;;;;;;26.10;7.10;;;8.10;99.90;;;;;;4992697;28;20050;-61
2022/01/04 03:29:05;;;;;;;36.83;8.80;;;8.00;99.90;;;;;;4992797;28;20177;-61
2022/01/04 03:31:31;;;;;;;29.75;7.10;;;8.10;99.90;;;;;;4992784;28;20054;-60
2022/01/04 03:33:57;;;;;;;28.38;7.28;;;8.00;99.90;;;;;;4992820;28;20086;-61
2022/01/04 03:36:24;;;;;;;28.33;6.18;;;8.00;99.90;;;;;;4992859;28;20532;-61
2022/01/04 03:38:54;;;;;;;29.88;6.55;;;8.00;99.90;;;;;;4992625;28;20034;-61
2022/01/04 03:41:22;;;;;;;26.50;6.60;;;8.00;99.90;;;;;;4992398;28;20400;-61
2022/01/04 03:43:49;;;;;;;33.40;7.53;;;8.00;99.90;;;;;;4992448;28;20078;-61
2022/01/04 03:46:15;;;;;;;29.30;7.43;;;8.00;99.90;;;;;;4992472;28;20099;-61
2022/01/04 03:48:41;;;;;;;26.25;7.20;;;8.00;99.90;;;;;;4992362;28;20046;-61
2022/01/04 03:51:07;;;;;;;29.67;7.13;;;8.00;99.90;;;;;;4992577;28;20052;-61
2022/01/04 03:53:34;;;;;;;34.15;8.10;;;8.10;99.90;;;;;;4990555;28;20054;-61
2022/01/04 03:56:00;;;;;;;38.85;7.68;;;8.10;99.90;;;;;;4992233;28;20401;-61
2022/01/04 03:58:26;;;;;;;31.95;6.70;;;8.10;99.90;;;;;;4992564;28;20053;-61
2022/01/04 04:00:52;;;;;;;26.77;7.55;;;8.10;99.90;;;;;;4992420;28;20056;-61
2022/01/04 04:03:18;;;;;;;33.00;7.90;;;8.10;99.90;;;;;;4992215;28;20502;-61
2022/01/04 04:05:43;;;;;;;29.27;7.38;;;8.00;99.90;;;;;;4992066;28;20042;-61
2022/01/04 04:08:09;;;;;;;36.70;8.55;;;8.10;99.90;;;;;;4992073;28;20039;-61
2022/01/04 04:10:35;;;;;;;22.27;6.30;;;8.10;99.90;;;;;;4991747;28;20049;-61
2022/01/04 04:13:02;;;;;;;27.20;6.53;;;8.10;99.90;;;;;;4992185;28;20042;-61
2022/01/04 04:15:27;;;;;;;33.65;8.77;;;8.10;99.90;;;;;;4992046;28;20038;-61
2022/01/04 04:17:53;;;;;;;34.30;7.07;;;8.10;99.90;;;;;;4991871;28;20091;-61
2022/01/04 04:20:20;;;;;;;35.35;7.07;;;8.10;99.90;;;;;;4991839;28;20499;-61
2022/01/04 04:22:47;;;;;;;26.52;8.32;;;8.10;99.90;;;;;;4991882;28;20039;-61
2022/01/04 04:25:13;;;;;;;27.30;9.10;;;8.00;99.90;;;;;;4991714;28;20395;-61
2022/01/04 04:27:39;;;;;;;29.60;9.60;;;8.00;99.90;;;;;;4991756;28;20042;-61
2022/01/04 04:30:05;;;;;;;31.65;7.97;;;8.10;99.90;;;;;;4991768;28;20133;-61
2022/01/04 04:32:31;;;;;;;34.40;9.52;;;8.10;99.90;;;;;;4991204;28;20500;-60
2022/01/04 04:34:57;;;;;;;32.65;8.57;;;8.10;99.90;;;;;;4991653;28;20053;-61
2022/01/04 04:37:23;;;;;;;27.00;7.53;;;8.10;99.90;;;;;;4991504;28;20042;-61
2022/01/04 04:39:49;;;;;;;29.85;7.82;;;8.10;99.90;;;;;;4991480;28;20039;-61
2022/01/04 04:42:15;;;;;;;32.95;8.63;;;8.10;99.90;;;;;;4991555;28;20096;-61
2022/01/04 04:44:41;;;;;;;29.35;8.23;;;8.10;99.90;;;;;;4991532;28;20046;-61
2022/01/04 04:47:07;;;;;;;32.42;8.27;;;8.10;99.90;;;;;;4991519;28;20054;-61
2022/01/04 04:49:32;;;;;;;35.45;8.93;;;8.10;99.90;;;;;;4991598;28;20057;-50
2022/01/04 04:51:59;;;;;;;28.42;8.07;;;8.10;99.90;;;;;;4991434;28;20053;-51
2022/01/04 04:54:26;;;;;;;26.23;7.65;;;8.10;99.90;;;;;;4991401;28;20091;-51
2022/01/04 04:56:52;;;;;;;30.35;8.10;;;8.10;99.90;;;;;;4991167;28;20483;-51
2022/01/04 04:59:17;;;;;;;45.63;9.50;;;8.10;99.90;;;;;;4991400;28;20042;-49
2022/01/04 05:01:43;;;;;;;29.77;8.60;;;8.10;99.90;;;;;;4991342;28;20042;-52
2022/01/04 05:04:09;;;;;;;31.23;8.23;;;8.10;99.90;;;;;;4991293;28;20050;-49
2022/01/04 05:06:34;;;;;;;36.67;9.70;;;8.10;99.90;;;;;;4991611;28;20081;-50
2022/01/04 05:09:00;;;;;;;30.02;9.52;;;8.10;99.90;;;;;;4990000;28;20446;-51
2022/01/04 05:11:26;;;;;;;33.38;10.82;;;8.10;99.90;;;;;;4991342;28;20046;-50
2022/01/04 05:13:52;;;;;;;30.55;8.93;;;8.10;99.90;;;;;;4991061;28;20086;-48
2022/01/04 05:16:18;;;;;;;27.67;9.68;;;8.10;99.90;;;;;;4991141;28;20042;-50
2022/01/04 05:18:43;;;;;;;31.65;10.27;;;8.10;99.90;;;;;;4991006;28;20038;-49
2022/01/04 05:21:09;;;;;;;34.33;10.68;;;8.10;99.90;;;;;;4991022;28;20053;-52
2022/01/04 05:23:35;;;;;;;38.80;10.52;;;8.10;99.90;;;;;;4991198;28;20034;-51
2022/01/04 05:26:00;;;;;;;27.73;10.90;;;8.10;99.90;;;;;;4989729;28;20373;-50
2022/01/04 05:28:26;;;;;;;38.55;10.93;;;8.10;99.90;;;;;;4990801;28;20034;-51
2022/01/04 05:30:52;;;;;;;30.42;9.98;;;8.10;99.90;;;;;;4991101;28;20070;-47
2022/01/04 05:33:17;;;;;;;33.15;10.57;;;8.10;99.90;;;;;;4990975;28;20647;-49
2022/01/04 05:35:43;;;;;;;25.23;8.82;;;8.10;99.90;;;;;;4989996;28;20038;-52
2022/01/04 05:38:09;;;;;;;33.17;9.27;;;8.10;99.90;;;;;;4991044;28;20038;-51
2022/01/04 05:40:34;;;;;;;27.60;10.50;;;8.10;99.90;;;;;;4990988;28;20042;-52
2022/01/04 05:43:00;;;;;;;29.30;10.30;;;8.00;99.90;;;;;;4990805;28;20035;-50
2022/01/04 05:45:28;;;;;;;38.90;11.85;;;8.00;99.90;;;;;;4990664;28;20531;-51
2022/01/04 05:47:54;;;;;;;34.58;10.70;;;8.00;99.90;;;;;;4990602;28;20057;-48
2022/01/04 05:50:19;;;;;;;29.92;11.57;;;8.00;99.90;;;;;;4990473;28;20031;-50
2022/01/04 05:52:45;;;;;;;32.45;10.85;;;8.00;99.90;;;;;;4990327;28;20077;-51
2022/01/04 05:55:11;;;;;;;32.92;10.38;;;7.90;99.90;;;;;;4990392;28;20096;-51
2022/01/04 05:57:36;;;;;;;33.38;11.55;;;7.90;99.90;;;;;;4990524;28;20050;-51
2022/01/04 06:00:04;;;;;;;34.00;10.55;;;7.90;99.90;;;;;;4990527;28;20039;-47
2022/01/04 06:02:30;;;;;;;31.77;11.30;;;7.90;99.90;;;;;;4990323;28;20396;-51
2022/01/04 06:04:55;;;;;;;39.60;10.35;;;7.90;99.90;;;;;;4990262;28;20045;-52
2022/01/04 06:07:21;;;;;;;33.33;10.85;;;7.90;99.90;;;;;;4990287;28;20053;-47
2022/01/04 06:09:50;;;;;;;36.50;9.85;;;7.90;99.90;;;;;;4988941;28;20050;-49
2022/01/04 06:14:54;;;;;;;29.23;10.50;;;7.90;99.90;;;;;;4990218;28;20049;-52
2022/01/04 06:17:26;;;;;;;35.10;10.57;;;7.90;99.90;;;;;;4990038;28;20075;-52
2022/01/04 06:19:53;;;;;;;32.13;11.02;;;7.90;99.90;;;;;;4990216;28;20039;-47
2022/01/04 06:22:19;;;;;;;35.90;10.90;;;7.90;99.90;;;;;;4990173;28;20043;-49
2022/01/04 06:24:45;;;;;;;42.88;10.07;;;7.90;99.90;;;;;;4990321;28;20451;-48
2022/01/04 06:27:11;;;;;;;35.22;9.63;;;8.00;99.90;;;;;;4990010;28;20054;-49
2022/01/04 06:29:40;;;;;;;27.85;8.90;;;8.00;99.90;;;;;;4990025;28;20050;-52
2022/01/04 06:32:07;;;;;;;35.88;9.00;;;8.00;99.90;;;;;;4990131;28;20043;-52
2022/01/04 06:34:34;;;;;;;35.05;10.38;;;8.00;99.90;;;;;;4990037;28;20254;-51
2022/01/04 06:37:00;;;;;;;27.55;9.10;;;8.00;99.90;;;;;;4990149;28;20046;-49
2022/01/04 06:39:26;;;;;;;22.15;7.90;;;8.00;99.90;;;;;;4989966;28;20480;-51
2022/01/04 06:41:52;;;;;;;38.70;9.70;;;8.00;99.90;;;;;;4989964;28;20065;-52
2022/01/04 06:44:18;;;;;;;28.98;7.72;;;8.10;99.90;;;;;;4989792;28;20480;-49
2022/01/04 06:46:46;;;;;;;27.00;8.32;;;8.00;99.90;;;;;;4988510;28;20043;-52
2022/01/04 06:49:16;;;;;;;32.03;8.70;;;8.00;99.90;;;;;;4989858;28;20046;-50
2022/01/04 06:51:44;;;;;;;39.47;8.50;;;8.00;99.90;;;;;;4988262;28;20467;-51
2022/01/04 06:54:11;;;;;;;26.90;7.15;;;8.00;99.90;;;;;;4989829;28;20082;-50
2022/01/04 06:56:37;;;;;;;23.40;7.20;;;8.00;99.90;;;;;;4989994;28;20050;-48
2022/01/04 06:59:04;;;;;;;27.30;6.68;;;7.90;99.90;;;;;;4989589;28;20360;-49
2022/01/04 07:01:30;;;;;;;23.40;6.00;;;7.90;99.90;;;;;;4989839;28;20047;-52
2022/01/04 07:03:56;;;;;;;21.90;5.78;;;8.10;99.90;;;;;;4990041;28;20517;-52
2022/01/04 07:06:22;;;;;;;27.55;6.85;;;8.00;99.90;;;;;;4989395;28;20121;-52
2022/01/04 07:08:47;;;;;;;20.65;6.93;;;7.90;99.90;;;;;;4989558;28;20039;-48
2022/01/04 07:11:14;;;;;;;22.30;7.65;;;7.90;99.90;;;;;;4989507;28;20042;-51
2022/01/04 07:13:40;;;;;;;29.70;7.82;;;7.90;99.90;;;;;;4989719;28;20050;-61
2022/01/04 07:16:06;;;;;;;29.90;9.13;;;7.90;99.90;;;;;;4988013;28;20445;-61
2022/01/04 07:18:32;;;;;;;29.45;8.00;;;7.90;99.90;;;;;;4989373;28;20034;-61
2022/01/04 07:20:58;;;;;;;28.55;8.32;;;7.90;99.90;;;;;;4989218;28;20034;-61
2022/01/04 07:23:23;;;;;;;29.52;7.68;;;7.90;99.90;;;;;;4989260;28;20047;-61
2022/01/04 07:25:49;;;;;;;27.48;8.20;;;7.90;99.90;;;;;;4989204;28;20039;-62
2022/01/04 07:28:15;;;;;;;26.65;7.95;;;7.90;99.90;;;;;;4989096;28;20485;-61
2022/01/04 07:30:41;;;;;;;25.88;7.13;;;7.90;99.90;;;;;;4989117;28;20116;-61
2022/01/04 07:33:07;;;;;;;13.63;5.40;;;7.90;99.90;;;;;;4989109;28;20047;-62
2022/01/04 07:35:33;;;;;;;23.45;6.40;;;7.90;99.90;;;;;;4989167;28;20038;-62
2022/01/04 07:37:59;;;;;;;17.65;5.40;;;7.90;99.90;;;;;;4989017;28;20441;-62
2022/01/04 07:40:24;;;;;;;25.08;6.55;;;7.90;99.90;;;;;;4989031;28;20050;-62
2022/01/04 07:42:50;;;;;;;28.48;6.90;;;7.90;99.90;;;;;;4988967;28;20030;-62
2022/01/04 07:45:17;;;;;;;22.08;6.00;;;7.90;99.90;;;;;;4988967;28;20484;-62
2022/01/04 07:47:43;;;;;;;25.88;6.80;;;7.90;99.90;;;;;;4989296;28;20636;-62
2022/01/04 07:50:10;;;;;;;32.35;6.95;;;7.90;99.90;;;;;;4989274;28;20556;-62
2022/01/04 07:52:36;;;;;;;24.17;6.28;;;7.90;99.90;;;;;;4989201;28;20471;-62
2022/01/04 07:55:03;;;;;;;16.45;5.00;;;7.90;99.90;;;;;;4988993;28;20049;-62
2022/01/04 07:57:29;;;;;;;19.02;5.38;;;7.80;99.90;;;;;;4988908;28;20503;-62
2022/01/04 07:59:54;;;;;;;15.07;5.07;;;7.80;99.90;;;;;;4992374;28;20035;-62
2022/01/04 08:02:20;;;;;;;22.35;5.93;;;7.80;99.90;;;;;;4991037;28;20541;-62
2022/01/04 08:04:46;;;;;;;22.10;4.80;;;7.80;99.90;;;;;;4992226;28;20124;-62
2022/01/04 08:07:11;;;;;;;19.50;5.15;;;7.90;99.90;;;;;;4991939;28;20045;-62
2022/01/04 08:09:37;;;;;;;19.98;6.30;;;7.80;99.90;;;;;;4992012;28;20092;-62
2022/01/04 08:12:04;;;;;;;18.40;4.32;;;7.80;99.90;;;;;;4991934;28;20125;-62
2022/01/04 08:14:29;;;;;;;18.67;5.10;;;7.80;99.90;;;;;;4991922;28;20095;-62
2022/01/04 08:16:55;;;;;;;15.13;4.00;;;7.80;99.90;;;;;;4991909;28;20046;-62
2022/01/04 08:19:21;;;;;;;16.33;4.03;;;7.80;99.90;;;;;;4992036;28;20065;-62
2022/01/04 08:21:47;;;;;;;18.35;4.10;;;7.80;99.90;;;;;;4990523;28;20498;-62
2022/01/04 08:24:12;;;;;;;17.67;4.57;;;7.80;99.90;;;;;;4991868;28;20042;-61
2022/01/04 08:26:38;;;;;;;21.02;5.10;;;7.80;99.90;;;;;;4991740;28;20042;-61
2022/01/04 08:29:04;;;;;;;20.33;4.30;;;7.80;99.90;;;;;;4991879;28;20120;-61
2022/01/04 08:31:29;;;;;;;18.40;5.40;;;7.80;99.90;;;;;;4991651;28;20107;-61
2022/01/04 08:33:55;;;;;;;24.05;4.78;;;7.80;99.90;;;;;;4991816;28;20054;-61
2022/01/04 08:36:26;;;;;;;21.02;5.10;;;7.80;99.90;;;;;;4991996;28;20473;-61
2022/01/04 08:38:52;;;;;;;14.48;4.70;;;7.80;99.90;;;;;;4991570;28;20404;-61
2022/01/04 08:41:17;;;;;;;16.80;4.32;;;7.90;99.90;;;;;;4991496;28;20040;-61
2022/01/04 08:43:43;;;;;;;20.10;4.68;;;7.90;99.90;;;;;;4991509;28;20388;-62
2022/01/04 08:46:09;;;;;;;22.70;5.00;;;7.80;99.90;;;;;;4991740;28;20038;-62
2022/01/04 08:48:34;;;;;;;24.30;5.07;;;7.80;99.90;;;;;;4991609;28;20039;-63
2022/01/04 08:51:00;;;;;;;19.75;5.70;;;7.90;99.90;;;;;;4991414;28;20038;-62
2022/01/04 08:53:26;;;;;;;27.17;5.45;;;7.80;99.90;;;;;;4991401;28;20089;-62
2022/01/04 08:55:52;;;;;;;15.55;3.58;;;7.80;99.90;;;;;;4989647;28;20050;-62
2022/01/04 08:58:17;;;;;;;7.70;2.83;;;7.70;99.90;;;;;;4991366;28;20131;-62
2022/01/04 09:00:43;;;;;;;6.80;2.80;;;7.60;99.90;;;;;;4991458;28;20081;-63
2022/01/04 09:03:09;;;;;;;11.05;2.28;;;7.50;99.90;;;;;;4991346;28;20038;-62
2022/01/04 09:05:35;;;;;;;9.85;2.40;;;7.40;99.90;;;;;;4991297;28;20156;-63
2022/01/04 09:08:01;;;;;;;6.53;2.13;;;7.30;99.90;;;;;;4991229;28;20442;-63
2022/01/04 09:10:27;;;;;;;7.70;1.40;;;7.20;99.90;;;;;;4990073;28;20126;-63
2022/01/04 09:13:02;;;;;;;8.40;1.75;;;7.20;99.90;;;;;;4990135;28;20148;-63
2022/01/04 09:20:50;;;;;;;7.00;1.48;;;7.10;99.90;;;;;;4990968;28;20476;-63
2022/01/04 09:23:20;;;;;;;9.10;2.03;;;7.10;99.90;;;;;;4991423;28;20049;-63
2022/01/04 09:25:51;;;;;;;9.77;1.40;;;7.10;99.90;;;;;;4990999;28;20121;-63
2022/01/04 09:28:18;;;;;;;8.23;1.75;;;7.10;99.90;;;;;;4990954;28;20034;-62
2022/01/04 09:30:45;;;;;;;7.90;1.20;;;7.10;99.90;;;;;;4990780;28;20039;-62
2022/01/04 09:33:11;;;;;;;6.80;1.15;;;7.00;99.90;;;;;;4990609;28;20053;-63
2022/01/04 09:35:37;;;;;;;13.73;1.98;;;7.00;99.90;;;;;;4990710;28;20058;-63
2022/01/04 09:38:04;;;;;;;6.15;1.55;;;7.00;99.90;;;;;;4989048;28;20111;-63
2022/01/04 09:40:32;;;;;;;6.53;1.40;;;6.90;99.90;;;;;;4990735;28;20042;-63
2022/01/04 09:43:00;;;;;;;7.30;1.60;;;7.00;99.90;;;;;;4990740;28;20113;-63
2022/01/04 09:45:26;;;;;;;12.05;1.50;;;7.00;99.90;;;;;;4990568;28;20038;-63
2022/01/04 09:47:51;;;;;;;5.72;1.10;;;6.90;99.90;;;;;;4990455;28;20515;-63
2022/01/04 09:50:17;;;;;;;6.63;0.98;;;6.90;99.90;;;;;;4990437;28;20042;-63
2022/01/04 09:52:46;;;;;;;5.28;0.90;;;6.90;99.90;;;;;;4990651;28;20153;-63
2022/01/04 09:55:14;;;;;;;8.52;1.00;;;7.00;99.90;;;;;;4990514;28;20035;-62
2022/01/04 09:57:42;;;;;;;6.20;0.95;;;6.90;99.90;;;;;;4990370;28;20420;-63
2022/01/04 10:00:09;;;;;;;3.25;0.70;;;6.90;99.90;;;;;;4990780;28;20084;-63
2022/01/04 10:02:35;;;;;;;4.68;0.75;;;6.90;99.90;;;;;;4990470;28;20038;-63
2022/01/04 10:05:19;;;;;;;5.43;1.02;;;6.90;99.90;;;;;;4990486;28;20039;-63
2022/01/04 10:07:46;;;;;;;6.32;1.10;;;6.80;99.90;;;;;;4990122;28;20134;-63
2022/01/04 10:10:14;;;;;;;2.58;0.63;;;6.80;99.90;;;;;;4990297;28;20057;-63
2022/01/04 10:12:51;;;;;;;6.63;0.77;;;6.60;99.90;;;;;;4990612;28;20434;-63
2022/01/04 10:15:37;;;;;;;2.05;0.60;;;6.60;99.90;;;;;;4990121;28;20038;-63
2022/01/04 10:18:21;;;;;;;3.03;0.77;;;6.50;99.90;;;;;;4990190;28;20069;-63
2022/01/04 10:21:09;;;;;;;4.65;0.75;;;6.50;99.90;;;;;;4988720;28;20051;-63
2022/01/04 10:23:47;;;;;;;4.53;0.90;;;6.40;99.90;;;;;;4989867;28;20491;-63
2022/01/04 10:26:13;;;;;;;3.83;0.80;;;6.50;99.90;;;;;;4990105;28;20122;-63
2022/01/04 10:28:45;;;;;;;5.47;0.65;;;6.40;99.90;;;;;;4990022;28;20038;-63
2022/01/04 10:31:16;;;;;;;6.05;1.00;;;6.40;99.90;;;;;;4990025;28;20043;-63
2022/01/04 10:33:42;;;;;;;3.55;0.60;;;6.40;99.90;;;;;;4989632;28;20484;-63
2022/01/04 10:36:12;;;;;;;5.78;1.27;;;6.50;99.90;;;;;;4989920;28;20085;-63
2022/01/04 10:38:43;;;;;;;2.60;0.70;;;6.40;99.90;;;;;;4990011;28;20038;-63
2022/01/04 10:41:27;;;;;;;3.75;0.70;;;6.40;99.90;;;;;;4990083;28;20100;-63
2022/01/04 10:44:06;;;;;;;2.72;0.65;;;6.40;99.90;;;;;;4989669;28;20122;-63
2022/01/04 10:46:41;;;;;;;4.18;1.15;;;6.40;99.90;;;;;;4989832;28;20485;-63
2022/01/04 10:49:21;;;;;;;3.88;0.60;;;6.40;99.90;;;;;;4989639;28;20496;-63
2022/01/04 10:52:08;;;;;;;4.43;0.88;;;6.30;99.90;;;;;;4989862;28;20049;-63
2022/01/04 10:54:34;;;;;;;6.13;0.80;;;6.30;99.90;;;;;;4989441;28;20069;-63
2022/01/04 10:57:08;;;;;;;3.10;0.43;;;6.30;99.90;;;;;;4989692;28;20042;-63
2022/01/04 10:59:34;;;;;;;0.90;0.32;;;6.30;99.90;;;;;;4989476;28;20049;-63
2022/01/04 11:02:00;;;;;;;1.48;0.50;;;6.30;99.90;;;;;;4972966;28;20058;-63
2022/01/04 11:04:26;;;;;;;1.15;0.43;;;6.30;99.90;;;;;;4989480;28;20027;-63
2022/01/04 11:06:59;;;;;;;2.83;0.63;;;6.20;99.90;;;;;;4989697;28;20400;-63
2022/01/04 11:09:24;;;;;;;5.93;0.70;;;6.10;99.90;;;;;;4989368;28;20050;-62
2022/01/04 11:11:50;;;;;;;4.57;0.77;;;6.10;99.90;;;;;;4989561;28;20038;-63
2022/01/04 11:14:15;;;;;;;5.75;1.20;;;6.20;99.90;;;;;;4989456;28;20041;-63
2022/01/04 11:16:42;;;;;;;5.45;0.60;;;6.10;99.90;;;;;;4989237;28;20050;-63
2022/01/04 11:19:08;;;;;;;8.48;1.13;;;6.10;99.90;;;;;;4989355;28;20034;-63
2022/01/04 11:21:41;;;;;;;5.72;0.70;;;6.20;99.90;;;;;;4989405;28;20385;-63
2022/01/04 11:24:12;;;;;;;7.07;0.98;;;6.10;99.90;;;;;;4989308;28;20034;-63
2022/01/04 11:26:43;;;;;;;11.77;1.15;;;6.10;99.90;;;;;;4989272;28;20042;-63
2022/01/04 11:29:09;;;;;;;6.68;1.08;;;6.00;99.90;;;;;;4989258;28;20052;-63
2022/01/04 11:31:45;;;;;;;5.70;1.25;;;6.00;99.90;;;;;;4989499;28;20046;-63
2022/01/04 11:34:35;;;;;;;7.05;1.00;;;5.90;99.90;;;;;;4991662;28;20062;-63
2022/01/04 11:37:01;;;;;;;8.15;1.13;;;5.90;99.90;;;;;;4992421;28;20050;-63
2022/01/04 11:39:35;;;;;;;4.55;1.55;;;5.90;99.90;;;;;;4992235;28;20484;-62
2022/01/04 11:42:07;;;;;;;4.85;1.88;;;5.90;99.90;;;;;;4992458;28;20042;-62
2022/01/04 11:44:35;;;;;;;3.63;0.90;;;5.80;99.90;;;;;;4992275;28;20042;-63
2022/01/04 11:47:07;;;;;;;5.55;0.93;;;5.90;99.90;;;;;;4992587;28;20131;-63
2022/01/04 11:49:36;;;;;;;6.47;0.95;;;5.90;99.90;;;;;;4992705;28;20126;-63
2022/01/04 11:52:03;;;;;;;;;;;5.90;99.90;;;;;;4992527;28;20057;-63
2022/01/04 11:54:31;;;;;;;3.63;0.90;;;5.90;99.90;;;;;;4992257;28;19971;-63
2022/01/04 11:56:58;;;;;;;3.50;1.10;;;6.00;99.90;;;;;;4992109;28;20373;-62
2022/01/04 11:59:31;;;;;;;5.75;1.50;;;6.00;99.90;;;;;;4992011;28;20042;-62
2022/01/04 12:02:17;;;;;;;4.93;0.90;;;6.00;99.90;;;;;;4992282;28;20042;-63
2022/01/04 12:04:55;;;;;;;5.18;0.70;;;6.00;99.90;;;;;;4991974;28;20034;-63
2022/01/04 12:07:39;;;;;;;11.48;1.50;;;6.20;99.90;;;;;;4991957;28;20503;-63
2022/01/04 12:10:20;;;;;;;4.63;0.60;;;6.10;99.90;;;;;;4992138;28;20046;-63
2022/01/04 12:13:02;;;;;;;8.10;0.80;;;6.20;99.90;;;;;;4991882;28;20046;-63
2022/01/04 12:15:33;;;;;;;4.28;1.67;;;6.20;99.90;;;;;;4992132;28;20082;-63
2022/01/04 12:18:21;;;;;;;11.48;1.23;;;6.20;99.90;;;;;;4991769;28;20043;-63
2022/01/04 12:20:52;;;;;;;7.38;0.90;;;6.20;99.90;;;;;;4991978;28;20340;-63
2022/01/04 12:23:29;;;;;;;6.45;1.17;;;6.20;99.90;;;;;;4991764;28;20035;-63
2022/01/04 12:26:04;;;;;;;11.52;1.77;;;6.20;99.90;;;;;;4991700;28;20042;-62
2022/01/04 12:28:33;;;;;;;8.55;1.50;;;6.30;99.90;;;;;;4991579;28;20046;-62
2022/01/04 12:31:18;;;;;;;10.20;1.67;;;6.20;99.90;;;;;;4990478;28;20049;-63
2022/01/04 12:33:49;;;;;;;13.93;1.80;;;6.20;99.90;;;;;;4990340;28;20062;-62
2022/01/04 12:36:34;;;;;;;12.80;1.73;;;6.10;99.90;;;;;;4991595;28;20046;-62
2022/01/04 12:39:15;;;;;;;13.45;1.70;;;6.00;99.90;;;;;;4991436;28;20439;-62
2022/01/04 12:41:44;;;;;;;3.78;0.98;;;6.00;99.90;;;;;;4991733;28;20046;-62
2022/01/04 12:44:12;;;;;;;6.93;1.15;;;6.00;99.90;;;;;;4991601;28;20046;-63
2022/01/04 12:46:40;;;;;;;5.78;1.15;;;6.00;99.90;;;;;;4991396;28;20046;-62
2022/01/04 12:49:08;;;;;;;6.07;0.90;;;6.10;99.90;;;;;;4991366;28;20126;-63
2022/01/04 12:51:39;;;;;;;5.53;1.00;;;6.10;99.90;;;;;;4991482;28;20086;-62
2022/01/04 12:54:08;;;;;;;9.57;1.60;;;6.20;99.90;;;;;;4991429;28;20046;-62
2022/01/04 12:56:42;;;;;;;7.20;1.20;;;6.20;99.90;;;;;;4991290;28;20089;-62
2022/01/04 12:59:08;;;;;;;5.97;1.38;;;6.20;99.90;;;;;;4991238;28;20064;-62
2022/01/04 13:01:34;;;;;;;9.15;1.73;;;6.20;99.90;;;;;;4989583;28;20046;-62
2022/01/04 13:04:00;;;;;;;10.93;1.70;;;6.20;99.90;;;;;;4991209;28;20053;-62